createdAt,value
2022-11-28T00:01:36.673Z,2.58
2022-11-28T00:04:05.671Z,2.60
2022-11-28T00:06:33.768Z,2.58
2022-11-28T00:09:02.087Z,2.75
2022-11-28T00:11:31.442Z,3.30
2022-11-28T00:13:59.497Z,2.78
2022-11-28T00:16:27.465Z,2.50
2022-11-28T00:18:56.320Z,2.60
2022-11-28T00:21:24.360Z,2.90
2022-11-28T00:23:52.727Z,3.50
2022-11-28T00:26:24.261Z,2.55
2022-11-28T00:28:54.225Z,2.45
2022-11-28T00:31:24.049Z,2.53
2022-11-28T00:33:52.533Z,3.35
2022-11-28T00:36:23.686Z,2.22
2022-11-28T00:38:52.387Z,2.30
2022-11-28T00:41:22.547Z,2.70
2022-11-28T00:43:52.155Z,2.35
2022-11-28T00:46:22.823Z,2.70
2022-11-28T00:48:50.993Z,3.17
2022-11-28T00:51:20.717Z,2.33
2022-11-28T00:53:50.888Z,1.90
2022-11-28T00:56:21.377Z,2.20
2022-11-28T00:58:49.859Z,3.10
2022-11-28T01:01:20.896Z,2.78
2022-11-28T01:03:51.922Z,2.15
2022-11-28T01:06:24.699Z,2.25
2022-11-28T01:08:53.125Z,2.22
2022-11-28T01:11:21.616Z,2.53
2022-11-28T01:13:50.307Z,2.60
2022-11-28T01:16:18.466Z,1.95
2022-11-28T01:18:46.493Z,2.42
2022-11-28T01:21:16.273Z,2.08
2022-11-28T01:23:44.380Z,2.08
2022-11-28T01:26:17.215Z,2.33
2022-11-28T01:28:45.213Z,1.90
2022-11-28T01:31:16.272Z,1.98
2022-11-28T01:33:44.392Z,2.13
2022-11-28T01:36:15.337Z,1.88
2022-11-28T01:38:43.911Z,1.80
2022-11-28T01:41:12.554Z,2.13
2022-11-28T01:43:59.207Z,1.83
2022-11-28T01:46:27.338Z,2.38
2022-11-28T01:48:58.627Z,1.83
2022-11-28T01:51:28.621Z,2.72
2022-11-28T01:53:57.006Z,1.98
2022-11-28T01:56:29.259Z,2.28
2022-11-28T01:59:03.472Z,1.98
2022-11-28T02:01:31.891Z,2.10
2022-11-28T02:04:00.466Z,2.13
2022-11-28T02:06:29.904Z,1.98
2022-11-28T02:08:57.874Z,1.95
2022-11-28T02:11:45.016Z,2.30
2022-11-28T02:14:24.242Z,2.13
2022-11-28T02:17:08.712Z,2.22
2022-11-28T02:20:12.405Z,1.70
2022-11-28T02:22:51.217Z,1.88
2022-11-28T02:25:38.362Z,1.90
2022-11-28T02:28:34.922Z,1.83
2022-11-28T02:31:18.332Z,1.80
2022-11-28T02:33:52.341Z,2.38
2022-11-28T02:36:23.213Z,1.92
2022-11-28T02:39:04.753Z,1.80
2022-11-28T02:41:38.063Z,1.88
2022-11-28T02:44:12.251Z,1.88
2022-11-28T02:46:51.834Z,1.65
2022-11-28T02:51:57.015Z,1.92
2022-11-28T02:54:27.274Z,1.70
2022-11-28T02:56:56.094Z,2.60
2022-11-28T02:59:34.513Z,2.35
2022-11-28T03:02:03.142Z,1.70
2022-11-28T03:04:48.094Z,2.22
2022-11-28T03:07:30.001Z,1.83
2022-11-28T03:10:10.209Z,2.08
2022-11-28T03:12:50.364Z,2.08
2022-11-28T03:15:22.743Z,2.30
2022-11-28T03:17:58.526Z,1.77
2022-11-28T03:20:37.320Z,1.95
2022-11-28T03:23:15.756Z,2.30
2022-11-28T03:25:55.997Z,2.42
2022-11-28T03:28:29.672Z,2.38
2022-11-28T03:33:32.143Z,1.85
2022-11-28T03:36:04.743Z,2.15
2022-11-28T03:38:37.372Z,2.20
2022-11-28T03:41:14.547Z,2.30
2022-11-28T03:43:45.536Z,1.88
2022-11-28T03:46:16.905Z,2.10
2022-11-28T03:48:47.969Z,1.88
2022-11-28T03:51:21.578Z,1.80
2022-11-28T03:53:54.943Z,2.03
2022-11-28T03:56:27.535Z,1.98
2022-11-28T03:59:00.755Z,2.33
2022-11-28T04:01:34.152Z,1.90
2022-11-28T04:04:12.726Z,2.05
2022-11-28T04:06:52.583Z,2.25
2022-11-28T04:09:30.927Z,1.70
2022-11-28T04:12:05.942Z,1.80
2022-11-28T04:14:38.370Z,2.00
2022-11-28T04:17:12.855Z,1.92
2022-11-28T04:19:46.292Z,1.80
2022-11-28T04:22:20.600Z,2.13
2022-11-28T04:24:53.068Z,2.50
2022-11-28T04:27:24.402Z,1.88
2022-11-28T04:29:55.857Z,1.90
2022-11-28T04:32:26.572Z,1.83
2022-11-28T04:34:58.808Z,2.28
2022-11-28T04:37:29.877Z,2.13
2022-11-28T04:39:58.107Z,2.10
2022-11-28T04:42:33.006Z,1.88
2022-11-28T04:45:09.155Z,2.00
2022-11-28T04:47:37.215Z,1.85
2022-11-28T04:50:06.085Z,2.13
2022-11-28T04:52:41.143Z,2.05
2022-11-28T04:55:14.870Z,2.10
2022-11-28T04:57:45.877Z,2.47
2022-11-28T05:00:15.710Z,1.88
2022-11-28T05:02:46.308Z,2.10
2022-11-28T05:05:18.634Z,2.17
2022-11-28T05:07:48.118Z,2.08
2022-11-28T05:10:17.492Z,2.00
2022-11-28T05:12:45.647Z,2.15
2022-11-28T05:15:18.828Z,2.35
2022-11-28T05:17:47.507Z,1.80
2022-11-28T05:20:16.813Z,1.85
2022-11-28T05:22:44.745Z,2.20
2022-11-28T05:25:14.021Z,2.10
2022-11-28T05:27:41.989Z,2.22
2022-11-28T05:30:12.178Z,1.95
2022-11-28T05:32:40.199Z,1.88
2022-11-28T05:35:08.997Z,2.22
2022-11-28T05:37:37.467Z,2.13
2022-11-28T05:40:06.607Z,1.83
2022-11-28T05:42:36.739Z,1.85
2022-11-28T05:45:06.084Z,1.95
2022-11-28T05:47:34.516Z,2.20
2022-11-28T05:50:02.591Z,2.38
2022-11-28T05:52:32.270Z,1.67
2022-11-28T05:55:01.470Z,2.72
2022-11-28T05:57:31.965Z,1.90
2022-11-28T06:00:01.278Z,2.35
2022-11-28T06:05:27.664Z,2.20
2022-11-28T06:07:55.801Z,2.40
2022-11-28T06:10:23.803Z,2.03
2022-11-28T06:12:51.818Z,2.30
2022-11-28T06:15:21.349Z,2.30
2022-11-28T06:17:49.257Z,2.13
2022-11-28T06:20:17.344Z,2.10
2022-11-28T06:22:47.305Z,1.80
2022-11-28T06:25:15.256Z,1.80
2022-11-28T06:27:43.320Z,2.08
2022-11-28T06:30:11.586Z,2.13
2022-11-28T06:32:40.862Z,2.00
2022-11-28T06:35:09.359Z,2.97
2022-11-28T06:37:37.303Z,2.25
2022-11-28T06:40:06.383Z,2.00
2022-11-28T06:42:35.964Z,1.90
2022-11-28T06:45:04.288Z,2.05
2022-11-28T06:47:32.974Z,2.38
2022-11-28T06:50:02.342Z,1.73
2022-11-28T06:52:30.308Z,2.20
2022-11-28T06:54:58.317Z,1.60
2022-11-28T06:57:26.392Z,2.38
2022-11-28T06:59:54.481Z,2.55
2022-11-28T07:02:25.009Z,2.67
2022-11-28T07:04:52.986Z,2.53
2022-11-28T07:07:22.425Z,2.45
2022-11-28T07:09:51.902Z,2.00
2022-11-28T07:12:19.915Z,2.58
2022-11-28T07:14:47.873Z,2.10
2022-11-28T07:17:16.009Z,1.90
2022-11-28T07:19:44.340Z,2.50
2022-11-28T07:22:12.449Z,2.60
2022-11-28T07:24:41.798Z,2.58
2022-11-28T07:27:09.883Z,2.28
2022-11-28T07:29:37.916Z,2.28
2022-11-28T07:32:07.734Z,2.97
2022-11-28T07:34:36.347Z,2.85
2022-11-28T07:37:04.413Z,2.65
2022-11-28T07:39:32.315Z,2.50
2022-11-28T07:42:01.718Z,2.70
2022-11-28T07:44:29.767Z,2.70
2022-11-28T07:46:57.854Z,2.40
2022-11-28T07:49:25.846Z,3.03
2022-11-28T07:51:53.749Z,2.28
2022-11-28T07:54:21.764Z,2.35
2022-11-28T07:57:12.801Z,2.10
2022-11-28T07:59:39.019Z,2.95
2022-11-28T08:02:07.052Z,2.55
2022-11-28T08:04:35.258Z,2.85
2022-11-28T08:07:03.336Z,2.53
2022-11-28T08:09:32.553Z,2.42
2022-11-28T08:12:00.565Z,2.30
2022-11-28T08:14:28.499Z,3.20
2022-11-28T08:16:57.980Z,3.00
2022-11-28T08:19:29.418Z,2.55
2022-11-28T08:22:00.069Z,2.83
2022-11-28T08:24:27.999Z,2.25
2022-11-28T08:26:55.906Z,3.47
2022-11-28T08:29:23.861Z,2.88
2022-11-28T08:31:51.785Z,2.75
2022-11-28T08:34:24.033Z,3.05
2022-11-28T08:36:51.997Z,3.22
2022-11-28T08:39:24.856Z,2.75
2022-11-28T08:44:21.541Z,3.35
2022-11-28T08:46:49.507Z,3.20
2022-11-28T08:49:17.504Z,3.00
2022-11-28T08:51:47.022Z,3.40
2022-11-28T08:54:14.993Z,3.20
2022-11-28T08:56:45.180Z,2.80
2022-11-28T08:59:13.108Z,3.20
2022-11-28T09:01:41.103Z,3.15
2022-11-28T09:04:09.190Z,3.40
2022-11-28T09:06:45.081Z,3.00
2022-11-28T09:09:14.818Z,3.53
2022-11-28T09:11:42.759Z,2.83
2022-11-28T09:14:10.991Z,3.05
2022-11-28T09:16:39.322Z,3.33
2022-11-28T09:19:09.144Z,2.70
2022-11-28T09:21:37.567Z,2.75
2022-11-28T09:24:06.404Z,2.70
2022-11-28T09:26:35.843Z,3.63
2022-11-28T09:29:03.807Z,2.80
2022-11-28T09:31:31.976Z,2.72
2022-11-28T09:33:59.985Z,3.53
2022-11-28T09:36:28.543Z,2.80
2022-11-28T09:38:56.584Z,2.53
2022-11-28T09:41:57.236Z,3.15
2022-11-28T09:44:34.437Z,3.30
2022-11-28T09:47:07.047Z,3.55
2022-11-28T09:49:41.091Z,3.00
2022-11-28T09:52:22.446Z,2.85
2022-11-28T09:54:59.548Z,2.97
2022-11-28T09:57:36.165Z,3.15
2022-11-28T10:00:06.711Z,3.45
2022-11-28T10:02:49.868Z,3.47
2022-11-28T10:05:24.315Z,2.80
2022-11-28T10:08:04.512Z,2.92
2022-11-28T10:10:48.798Z,2.75
2022-11-28T10:13:27.441Z,2.70
2022-11-28T10:16:08.439Z,2.90
2022-11-28T10:18:41.108Z,3.17
2022-11-28T10:21:22.847Z,2.75
2022-11-28T10:23:54.157Z,3.30
2022-11-28T10:26:33.208Z,2.72
2022-11-28T10:29:06.380Z,3.10
2022-11-28T10:31:37.737Z,2.47
2022-11-28T10:34:12.819Z,2.90
2022-11-28T10:36:51.803Z,3.20
2022-11-28T10:39:20.072Z,2.53
2022-11-28T10:42:11.590Z,2.90
2022-11-28T10:44:54.925Z,2.45
2022-11-28T10:47:38.241Z,2.72
2022-11-28T10:50:13.686Z,3.47
2022-11-28T10:52:48.957Z,3.08
2022-11-28T10:55:27.827Z,4.05
2022-11-28T10:58:04.607Z,3.13
2022-11-28T11:00:36.382Z,2.95
2022-11-28T11:03:05.897Z,3.55
2022-11-28T11:05:36.096Z,3.05
2022-11-28T11:08:12.700Z,2.85
2022-11-28T11:10:45.998Z,2.80
2022-11-28T11:13:17.461Z,4.30
2022-11-28T11:15:47.843Z,3.20
2022-11-28T11:18:25.071Z,3.40
2022-11-28T11:20:53.525Z,3.85
2022-11-28T11:23:23.106Z,3.35
2022-11-28T11:25:54.222Z,2.70
2022-11-28T11:28:37.940Z,2.83
2022-11-28T11:31:17.052Z,2.88
2022-11-28T11:33:45.224Z,3.40
2022-11-28T11:36:23.827Z,2.70
2022-11-28T11:38:52.326Z,3.22
2022-11-28T11:41:29.569Z,3.38
2022-11-28T11:44:00.236Z,3.63
2022-11-28T11:46:29.700Z,2.88
2022-11-28T11:48:57.774Z,3.08
2022-11-28T11:51:28.248Z,2.67
2022-11-28T11:54:04.000Z,3.08
2022-11-28T11:56:36.758Z,3.17
2022-11-28T11:59:12.073Z,2.67
2022-11-28T12:01:44.078Z,2.80
2022-11-28T12:04:43.689Z,3.03
2022-11-28T12:07:13.561Z,2.78
2022-11-28T12:09:47.312Z,2.78
2022-11-28T12:12:18.876Z,2.95
2022-11-28T12:14:48.873Z,3.60
2022-11-28T12:17:48.383Z,2.83
2022-11-28T12:20:35.867Z,2.83
2022-11-28T12:23:17.391Z,6.40
2022-11-28T12:25:51.212Z,3.40
2022-11-28T12:28:32.682Z,3.92
2022-11-28T12:31:12.094Z,3.45
2022-11-28T12:33:54.789Z,3.42
2022-11-28T12:36:29.753Z,3.50
2022-11-28T12:39:15.363Z,5.72
2022-11-28T12:42:06.519Z,3.75
2022-11-28T12:44:54.018Z,3.30
2022-11-28T12:47:38.588Z,3.30
2022-11-28T12:50:18.117Z,3.58
2022-11-28T12:52:53.265Z,2.80
2022-11-28T12:55:30.695Z,3.28
2022-11-28T12:58:07.189Z,4.57
2022-11-28T13:00:41.460Z,2.80
2022-11-28T13:03:17.635Z,7.93
2022-11-28T13:05:59.317Z,4.38
2022-11-28T13:08:52.507Z,3.22
2022-11-28T13:11:33.228Z,3.20
2022-11-28T13:14:09.389Z,3.50
2022-11-28T13:16:44.670Z,4.25
2022-11-28T13:19:24.061Z,2.92
2022-11-28T13:24:30.596Z,3.20
2022-11-28T13:27:07.940Z,3.58
2022-11-28T13:29:44.207Z,3.20
2022-11-28T13:32:22.007Z,3.80
2022-11-28T13:34:51.199Z,3.63
2022-11-28T13:40:24.632Z,3.58
2022-11-28T13:43:06.548Z,3.40
2022-11-28T13:45:37.024Z,3.25
2022-11-28T13:49:12.493Z,4.80
2022-11-28T13:51:31.975Z,4.10
2022-11-28T13:54:44.761Z,3.90
2022-11-28T13:57:27.946Z,3.45
2022-11-28T14:00:01.703Z,3.67
2022-11-28T14:02:42.322Z,4.07
2022-11-28T14:05:27.255Z,12.82
2022-11-28T14:07:56.628Z,4.82
2022-11-28T14:10:35.562Z,5.65
2022-11-28T14:13:37.605Z,3.63
2022-11-28T14:16:17.855Z,3.35
2022-11-28T14:19:04.857Z,3.42
2022-11-28T14:21:46.619Z,4.45
2022-11-28T14:24:22.277Z,3.63
2022-11-28T14:26:59.257Z,4.30
2022-11-28T14:29:35.204Z,4.65
2022-11-28T14:34:54.692Z,3.58
2022-11-28T14:37:50.373Z,3.85
2022-11-28T14:41:08.974Z,3.72
2022-11-28T14:43:39.528Z,4.13
2022-11-28T14:46:34.289Z,4.30
2022-11-28T14:49:17.821Z,4.38
2022-11-28T14:52:44.935Z,4.15
2022-11-28T14:55:21.600Z,4.60
2022-11-28T14:57:56.214Z,4.47
2022-11-28T15:00:26.652Z,4.85
2022-11-28T15:03:12.339Z,4.53
2022-11-28T15:05:47.963Z,4.30
2022-11-28T15:08:39.291Z,4.20
2022-11-28T15:11:21.511Z,4.63
2022-11-28T15:14:01.748Z,4.47
2022-11-28T15:16:31.979Z,5.40
2022-11-28T15:19:07.946Z,4.32
2022-11-28T15:21:44.748Z,3.75
2022-11-28T15:24:23.366Z,5.70
2022-11-28T15:26:57.202Z,5.15
2022-11-28T15:29:27.877Z,5.00
2022-11-28T15:31:58.651Z,5.63
2022-11-28T15:34:31.241Z,4.65
2022-11-28T15:37:01.383Z,4.80
2022-11-28T15:39:34.881Z,4.68
2022-11-28T15:42:05.732Z,4.78
2022-11-28T15:44:34.144Z,5.30
2022-11-28T15:47:02.563Z,4.82
2022-11-28T15:49:34.798Z,5.55
2022-11-28T15:52:04.761Z,5.07
2022-11-28T15:54:35.729Z,4.93
2022-11-28T15:57:04.870Z,4.40
2022-11-28T15:59:33.171Z,5.22
2022-11-28T16:02:05.270Z,5.43
2022-11-28T16:04:34.646Z,4.55
2022-11-28T16:07:03.229Z,4.82
2022-11-28T16:09:35.000Z,5.10
2022-11-28T16:12:05.353Z,4.22
2022-11-28T16:14:36.103Z,4.45
2022-11-28T16:17:10.260Z,5.28
2022-11-28T16:19:39.807Z,4.55
2022-11-28T16:22:11.158Z,5.15
2022-11-28T16:24:46.925Z,4.68
2022-11-28T16:27:29.760Z,4.72
2022-11-28T16:29:58.000Z,4.53
2022-11-28T16:32:37.893Z,5.30
2022-11-28T16:35:12.315Z,4.45
2022-11-28T16:37:40.731Z,5.25
2022-11-28T16:40:17.076Z,5.70
2022-11-28T16:42:53.271Z,6.85
2022-11-28T16:45:25.146Z,4.50
2022-11-28T16:47:56.557Z,4.85
2022-11-28T16:50:26.266Z,4.85
2022-11-28T16:52:54.966Z,4.47
2022-11-28T16:55:44.318Z,5.38
2022-11-28T16:58:18.142Z,6.00
2022-11-28T17:00:59.064Z,5.38
2022-11-28T17:03:48.559Z,5.70
2022-11-28T17:06:24.152Z,5.72
2022-11-28T17:08:52.544Z,5.00
2022-11-28T17:11:23.722Z,6.05
2022-11-28T17:13:51.921Z,5.25
2022-11-28T17:16:22.347Z,5.53
2022-11-28T17:18:51.014Z,7.07
2022-11-28T17:21:28.027Z,5.13
2022-11-28T17:23:56.649Z,5.65
2022-11-28T17:26:24.553Z,5.95
2022-11-28T17:28:52.634Z,4.88
2022-11-28T17:31:21.581Z,5.03
2022-11-28T17:33:49.507Z,5.60
2022-11-28T17:36:17.622Z,5.20
2022-11-28T17:38:46.945Z,5.93
2022-11-28T17:41:18.248Z,5.43
2022-11-28T17:43:46.174Z,6.35
2022-11-28T17:46:14.628Z,5.78
2022-11-28T17:48:42.683Z,5.18
2022-11-28T17:51:11.075Z,5.10
2022-11-28T17:53:39.462Z,5.63
2022-11-28T17:56:12.732Z,6.25
2022-11-28T17:58:40.801Z,6.88
2022-11-28T18:01:12.028Z,5.78
2022-11-28T18:03:40.243Z,7.07
2022-11-28T18:06:15.831Z,6.68
2022-11-28T18:08:44.001Z,6.50
2022-11-28T18:11:14.723Z,5.13
2022-11-28T18:13:43.897Z,4.97
2022-11-28T18:16:13.088Z,5.50
2022-11-28T18:18:41.322Z,5.05
2022-11-28T18:21:11.776Z,5.43
2022-11-28T18:23:40.326Z,5.72
2022-11-28T18:26:09.842Z,5.38
2022-11-28T18:28:39.567Z,5.75
2022-11-28T18:31:11.756Z,5.72
2022-11-28T18:33:40.430Z,5.55
2022-11-28T18:36:13.066Z,5.18
2022-11-28T18:38:41.609Z,6.00
2022-11-28T18:41:10.440Z,4.72
2022-11-28T18:43:40.106Z,5.07
2022-11-28T18:46:10.147Z,5.82
2022-11-28T18:48:40.389Z,5.40
2022-11-28T18:51:13.491Z,6.35
2022-11-28T18:53:42.162Z,5.45
2022-11-28T18:56:11.176Z,5.03
2022-11-28T18:58:42.211Z,4.50
2022-11-28T19:01:12.404Z,5.85
2022-11-28T19:03:41.453Z,6.05
2022-11-28T19:06:11.503Z,6.13
2022-11-28T19:08:40.749Z,5.90
2022-11-28T19:11:10.668Z,5.55
2022-11-28T19:13:41.156Z,6.90
2022-11-28T19:16:10.686Z,7.53
2022-11-28T19:18:40.006Z,6.38
2022-11-28T19:21:11.173Z,6.40
2022-11-28T19:23:39.933Z,6.53
2022-11-28T19:26:09.846Z,5.63
2022-11-28T19:28:41.102Z,5.97
2022-11-28T19:31:12.559Z,5.75
2022-11-28T19:33:40.664Z,5.38
2022-11-28T19:36:11.241Z,5.60
2022-11-28T19:38:39.825Z,5.60
2022-11-28T19:41:08.496Z,5.68
2022-11-28T19:43:36.814Z,5.82
2022-11-28T19:46:07.089Z,5.88
2022-11-28T19:48:37.105Z,6.68
2022-11-28T19:51:05.845Z,5.93
2022-11-28T19:53:37.547Z,7.25
2022-11-28T19:56:07.261Z,6.97
2022-11-28T19:58:35.839Z,6.90
2022-11-28T20:01:10.063Z,6.90
2022-11-28T20:03:39.075Z,6.13
2022-11-28T20:06:09.148Z,6.07
2022-11-28T20:08:38.237Z,5.85
2022-11-28T20:11:11.413Z,6.53
2022-11-28T20:13:39.793Z,6.18
2022-11-28T20:16:11.151Z,6.47
2022-11-28T20:18:40.272Z,7.00
2022-11-28T20:21:10.286Z,6.30
2022-11-28T20:23:40.915Z,6.60
2022-11-28T20:26:10.248Z,5.80
2022-11-28T20:28:41.236Z,6.35
2022-11-28T20:31:19.694Z,6.40
2022-11-28T20:33:47.782Z,6.47
2022-11-28T20:36:19.516Z,6.60
2022-11-28T20:38:47.988Z,5.85
2022-11-28T20:41:17.679Z,6.82
2022-11-28T20:43:46.025Z,6.60
2022-11-28T20:46:18.236Z,6.75
2022-11-28T20:48:46.630Z,5.40
2022-11-28T20:51:17.386Z,6.97
2022-11-28T20:53:45.961Z,6.53
2022-11-28T20:56:16.337Z,6.90
2022-11-28T20:58:44.850Z,6.95
2022-11-28T21:01:20.356Z,6.55
2022-11-28T21:03:48.817Z,6.25
2022-11-28T21:06:17.602Z,6.75
2022-11-28T21:08:45.911Z,6.38
2022-11-28T21:11:36.982Z,6.68
2022-11-28T21:14:08.738Z,6.15
2022-11-28T21:16:38.053Z,6.78
2022-11-28T21:19:08.970Z,7.05
2022-11-28T21:21:38.928Z,5.70
2022-11-28T21:24:09.578Z,5.97
2022-11-28T21:26:41.636Z,6.15
2022-11-28T21:29:13.433Z,5.75
2022-11-28T21:31:45.210Z,5.95
2022-11-28T21:34:15.466Z,5.55
2022-11-28T21:36:46.305Z,6.10
2022-11-28T21:39:19.805Z,6.38
2022-11-28T21:41:48.049Z,6.55
2022-11-28T21:44:15.993Z,6.25
2022-11-28T21:46:45.331Z,6.57
2022-11-28T21:49:14.028Z,6.82
2022-11-28T21:51:42.121Z,6.10
2022-11-28T21:54:11.676Z,6.68
2022-11-28T21:56:39.925Z,5.57
2022-11-28T21:59:08.041Z,6.00
2022-11-28T22:01:36.229Z,6.70
2022-11-28T22:04:06.728Z,6.57
2022-11-28T22:06:34.830Z,6.35
2022-11-28T22:09:09.346Z,6.50
2022-11-28T22:11:39.445Z,6.75
2022-11-28T22:14:07.987Z,6.70
2022-11-28T22:16:36.554Z,6.70
2022-11-28T22:19:06.644Z,6.43
2022-11-28T22:21:54.218Z,5.97
2022-11-28T22:24:24.670Z,5.88
2022-11-28T22:26:54.455Z,6.22
2022-11-28T22:29:24.254Z,6.10
2022-11-28T22:31:53.744Z,6.18
2022-11-28T22:34:23.193Z,6.85
2022-11-28T22:36:51.178Z,6.57
2022-11-28T22:39:21.366Z,5.85
2022-11-28T22:41:49.690Z,7.07
2022-11-28T22:44:18.582Z,7.50
2022-11-28T22:46:47.252Z,6.85
2022-11-28T22:49:15.428Z,5.93
2022-11-28T22:51:44.884Z,6.43
2022-11-28T22:54:14.490Z,6.10
2022-11-28T22:56:42.510Z,6.53
2022-11-28T22:59:13.322Z,6.70
2022-11-28T23:01:42.053Z,6.72
2022-11-28T23:04:10.435Z,6.47
2022-11-28T23:06:40.747Z,6.13
2022-11-28T23:09:15.230Z,6.57
2022-11-28T23:11:45.599Z,5.68
2022-11-28T23:14:15.341Z,6.78
2022-11-28T23:16:46.454Z,6.00
2022-11-28T23:19:16.744Z,6.85
2022-11-28T23:21:46.768Z,6.53
2022-11-28T23:24:18.309Z,6.60
2022-11-28T23:26:47.916Z,6.07
2022-11-28T23:29:16.759Z,6.47
2022-11-28T23:31:46.884Z,5.93
2022-11-28T23:34:15.511Z,6.95
2022-11-28T23:36:45.447Z,6.82
2022-11-28T23:39:15.202Z,6.32
2022-11-28T23:41:44.888Z,6.07
2022-11-28T23:44:13.865Z,6.18
2022-11-28T23:46:42.634Z,6.50
2022-11-28T23:49:11.566Z,5.50
2022-11-28T23:51:40.804Z,6.35
2022-11-28T23:54:09.761Z,6.43
2022-11-28T23:56:38.939Z,6.40
2022-11-28T23:59:10.679Z,6.30
